sensor_id;sensor_type;location;lat;lon;timestamp;temperature;humidity
67502;SHT30;54349;52.528;19.760;2023-04-02T00:11:41;24.54;42.71
67502;SHT30;54349;52.528;19.760;2023-04-02T00:14:29;24.51;42.74
67502;SHT30;54349;52.528;19.760;2023-04-02T00:17:02;24.50;42.68
67502;SHT30;54349;52.528;19.760;2023-04-02T00:22:28;24.47;42.55
67502;SHT30;54349;52.528;19.760;2023-04-02T00:25:00;24.45;42.39
67502;SHT30;54349;52.528;19.760;2023-04-02T00:27:39;24.43;42.26
67502;SHT30;54349;52.528;19.760;2023-04-02T00:30:09;24.42;42.25
67502;SHT30;54349;52.528;19.760;2023-04-02T00:32:42;24.40;42.16
67502;SHT30;54349;52.528;19.760;2023-04-02T00:35:12;24.38;42.11
67502;SHT30;54349;52.528;19.760;2023-04-02T00:37:53;24.36;42.00
67502;SHT30;54349;52.528;19.760;2023-04-02T00:40:24;24.36;42.02
67502;SHT30;54349;52.528;19.760;2023-04-02T00:42:58;24.34;41.98
67502;SHT30;54349;52.528;19.760;2023-04-02T00:45:31;24.32;41.91
67502;SHT30;54349;52.528;19.760;2023-04-02T00:48:15;24.31;41.91
67502;SHT30;54349;52.528;19.760;2023-04-02T00:50:50;24.29;41.90
67502;SHT30;54349;52.528;19.760;2023-04-02T00:53:23;24.27;41.84
67502;SHT30;54349;52.528;19.760;2023-04-02T00:55:58;24.27;41.73
67502;SHT30;54349;52.528;19.760;2023-04-02T00:58:33;24.25;41.72
67502;SHT30;54349;52.528;19.760;2023-04-02T01:01:03;24.22;41.69
67502;SHT30;54349;52.528;19.760;2023-04-02T01:03:56;24.20;41.66
67502;SHT30;54349;52.528;19.760;2023-04-02T01:06:29;24.19;41.59
67502;SHT30;54349;52.528;19.760;2023-04-02T01:09:09;24.16;41.51
67502;SHT30;54349;52.528;19.760;2023-04-02T01:15:18;24.11;41.28
67502;SHT30;54349;52.528;19.760;2023-04-02T01:20:58;24.07;41.26
67502;SHT30;54349;52.528;19.760;2023-04-02T01:24:03;24.05;41.27
67502;SHT30;54349;52.528;19.760;2023-04-02T01:26:44;24.03;41.27
67502;SHT30;54349;52.528;19.760;2023-04-02T01:29:26;24.01;41.15
67502;SHT30;54349;52.528;19.760;2023-04-02T01:32:06;24.00;41.20
67502;SHT30;54349;52.528;19.760;2023-04-02T01:34:40;23.99;41.14
67502;SHT30;54349;52.528;19.760;2023-04-02T01:37:25;23.97;41.08
67502;SHT30;54349;52.528;19.760;2023-04-02T01:46:04;23.93;41.06
67502;SHT30;54349;52.528;19.760;2023-04-02T01:49:00;23.92;41.04
67502;SHT30;54349;52.528;19.760;2023-04-02T01:51:40;23.90;40.95
67502;SHT30;54349;52.528;19.760;2023-04-02T01:54:12;23.89;41.00
67502;SHT30;54349;52.528;19.760;2023-04-02T01:56:44;23.87;41.04
67502;SHT30;54349;52.528;19.760;2023-04-02T01:59:15;23.87;40.99
67502;SHT30;54349;52.528;19.760;2023-04-02T02:01:51;23.85;40.96
67502;SHT30;54349;52.528;19.760;2023-04-02T02:04:30;23.86;40.97
67502;SHT30;54349;52.528;19.760;2023-04-02T02:06:59;23.85;40.89
67502;SHT30;54349;52.528;19.760;2023-04-02T02:09:34;23.83;40.90
67502;SHT30;54349;52.528;19.760;2023-04-02T02:12:03;23.82;40.88
67502;SHT30;54349;52.528;19.760;2023-04-02T02:14:33;23.82;40.89
67502;SHT30;54349;52.528;19.760;2023-04-02T02:17:02;23.81;40.87
67502;SHT30;54349;52.528;19.760;2023-04-02T02:19:41;23.80;40.81
67502;SHT30;54349;52.528;19.760;2023-04-02T02:22:24;23.78;40.78
67502;SHT30;54349;52.528;19.760;2023-04-02T02:25:10;23.78;40.75
67502;SHT30;54349;52.528;19.760;2023-04-02T02:27:46;23.77;40.70
67502;SHT30;54349;52.528;19.760;2023-04-02T02:30:45;23.76;40.67
67502;SHT30;54349;52.528;19.760;2023-04-02T02:33:36;23.74;40.64
67502;SHT30;54349;52.528;19.760;2023-04-02T02:36:23;23.74;40.62
67502;SHT30;54349;52.528;19.760;2023-04-02T02:39:14;23.72;40.54
67502;SHT30;54349;52.528;19.760;2023-04-02T02:44:36;23.70;40.55
67502;SHT30;54349;52.528;19.760;2023-04-02T02:47:22;23.69;40.55
67502;SHT30;54349;52.528;19.760;2023-04-02T02:49:59;23.69;40.52
67502;SHT30;54349;52.528;19.760;2023-04-02T02:52:39;23.67;40.51
67502;SHT30;54349;52.528;19.760;2023-04-02T02:55:18;23.67;40.50
67502;SHT30;54349;52.528;19.760;2023-04-02T02:58:04;23.65;40.49
67502;SHT30;54349;52.528;19.760;2023-04-02T03:00:47;23.66;40.48
67502;SHT30;54349;52.528;19.760;2023-04-02T03:03:21;23.64;40.44
67502;SHT30;54349;52.528;19.760;2023-04-02T03:05:59;23.63;40.39
67502;SHT30;54349;52.528;19.760;2023-04-02T03:08:35;23.62;40.28
67502;SHT30;54349;52.528;19.760;2023-04-02T03:14:53;23.60;40.25
67502;SHT30;54349;52.528;19.760;2023-04-02T03:17:30;23.60;40.19
67502;SHT30;54349;52.528;19.760;2023-04-02T03:27:59;23.56;40.00
67502;SHT30;54349;52.528;19.760;2023-04-02T03:30:41;23.55;39.93
67502;SHT30;54349;52.528;19.760;2023-04-02T03:33:21;23.54;39.95
67502;SHT30;54349;52.528;19.760;2023-04-02T03:39:15;23.52;39.87
67502;SHT30;54349;52.528;19.760;2023-04-02T03:42:02;23.51;39.86
67502;SHT30;54349;52.528;19.760;2023-04-02T03:44:48;23.50;39.87
67502;SHT30;54349;52.528;19.760;2023-04-02T03:50:37;23.49;39.80
67502;SHT30;54349;52.528;19.760;2023-04-02T03:53:41;23.48;39.79
67502;SHT30;54349;52.528;19.760;2023-04-02T03:56:18;23.48;39.75
67502;SHT30;54349;52.528;19.760;2023-04-02T04:01:52;23.48;39.66
67502;SHT30;54349;52.528;19.760;2023-04-02T04:04:28;23.49;39.64
67502;SHT30;54349;52.528;19.760;2023-04-02T04:06:59;23.50;39.57
67502;SHT30;54349;52.528;19.760;2023-04-02T04:09:30;23.50;39.53
67502;SHT30;54349;52.528;19.760;2023-04-02T04:15:04;23.53;39.56
67502;SHT30;54349;52.528;19.760;2023-04-02T04:21:21;23.52;39.55
67502;SHT30;54349;52.528;19.760;2023-04-02T04:24:30;23.52;39.55
67502;SHT30;54349;52.528;19.760;2023-04-02T04:27:04;23.52;39.50
67502;SHT30;54349;52.528;19.760;2023-04-02T04:30:00;23.52;39.43
67502;SHT30;54349;52.528;19.760;2023-04-02T04:32:45;23.52;39.43
67502;SHT30;54349;52.528;19.760;2023-04-02T04:35:42;23.51;39.40
67502;SHT30;54349;52.528;19.760;2023-04-02T04:38:18;23.51;39.38
67502;SHT30;54349;52.528;19.760;2023-04-02T04:41:03;23.51;39.47
67502;SHT30;54349;52.528;19.760;2023-04-02T04:43:45;23.50;39.50
67502;SHT30;54349;52.528;19.760;2023-04-02T04:46:29;23.50;39.51
67502;SHT30;54349;52.528;19.760;2023-04-02T04:51:47;23.50;39.58
67502;SHT30;54349;52.528;19.760;2023-04-02T04:54:39;23.49;39.55
67502;SHT30;54349;52.528;19.760;2023-04-02T04:57:16;23.48;39.46
67502;SHT30;54349;52.528;19.760;2023-04-02T04:59:56;23.48;39.46
67502;SHT30;54349;52.528;19.760;2023-04-02T05:06:04;23.48;39.40
67502;SHT30;54349;52.528;19.760;2023-04-02T05:08:40;23.46;39.39
67502;SHT30;54349;52.528;19.760;2023-04-02T05:11:25;23.46;39.37
67502;SHT30;54349;52.528;19.760;2023-04-02T05:14:07;23.46;39.31
67502;SHT30;54349;52.528;19.760;2023-04-02T05:22:53;23.44;39.21
67502;SHT30;54349;52.528;19.760;2023-04-02T05:25:32;23.43;39.18
67502;SHT30;54349;52.528;19.760;2023-04-02T05:33:31;23.42;39.16
67502;SHT30;54349;52.528;19.760;2023-04-02T05:36:09;23.42;39.15
67502;SHT30;54349;52.528;19.760;2023-04-02T05:38:48;23.40;39.09
67502;SHT30;54349;52.528;19.760;2023-04-02T05:41:33;23.40;39.07
67502;SHT30;54349;52.528;19.760;2023-04-02T05:44:17;23.38;39.10
67502;SHT30;54349;52.528;19.760;2023-04-02T05:47:19;23.38;39.10
67502;SHT30;54349;52.528;19.760;2023-04-02T05:52:50;23.38;39.10
67502;SHT30;54349;52.528;19.760;2023-04-02T05:58:51;23.38;38.98
67502;SHT30;54349;52.528;19.760;2023-04-02T06:01:16;23.37;38.96
67502;SHT30;54349;52.528;19.760;2023-04-02T06:04:06;23.38;38.93
67502;SHT30;54349;52.528;19.760;2023-04-02T06:07:21;23.41;38.91
67502;SHT30;54349;52.528;19.760;2023-04-02T06:13:06;23.44;38.89
67502;SHT30;54349;52.528;19.760;2023-04-02T06:15:39;23.46;38.82
67502;SHT30;54349;52.528;19.760;2023-04-02T06:18:15;23.48;38.76
67502;SHT30;54349;52.528;19.760;2023-04-02T06:20:50;23.49;38.74
67502;SHT30;54349;52.528;19.760;2023-04-02T06:26:06;23.54;38.60
67502;SHT30;54349;52.528;19.760;2023-04-02T06:28:47;23.55;38.51
67502;SHT30;54349;52.528;19.760;2023-04-02T06:31:39;23.56;38.50
67502;SHT30;54349;52.528;19.760;2023-04-02T06:34:18;23.57;38.50
67502;SHT30;54349;52.528;19.760;2023-04-02T06:37:02;23.59;38.43
67502;SHT30;54349;52.528;19.760;2023-04-02T06:40:16;23.60;38.43
67502;SHT30;54349;52.528;19.760;2023-04-02T06:43:15;23.61;38.34
67502;SHT30;54349;52.528;19.760;2023-04-02T06:46:22;23.63;38.30
67502;SHT30;54349;52.528;19.760;2023-04-02T06:49:12;23.63;38.30
67502;SHT30;54349;52.528;19.760;2023-04-02T06:52:17;23.62;38.24
67502;SHT30;54349;52.528;19.760;2023-04-02T06:54:54;23.61;38.23
67502;SHT30;54349;52.528;19.760;2023-04-02T06:57:23;23.59;38.22
67502;SHT30;54349;52.528;19.760;2023-04-02T06:59:53;23.59;38.19
67502;SHT30;54349;52.528;19.760;2023-04-02T07:02:28;23.58;38.23
67502;SHT30;54349;52.528;19.760;2023-04-02T07:05:07;23.58;38.26
67502;SHT30;54349;52.528;19.760;2023-04-02T07:07:41;23.56;38.22
67502;SHT30;54349;52.528;19.760;2023-04-02T07:10:11;23.55;38.26
67502;SHT30;54349;52.528;19.760;2023-04-02T07:12:39;23.54;38.28
67502;SHT30;54349;52.528;19.760;2023-04-02T07:15:10;23.53;38.31
67502;SHT30;54349;52.528;19.760;2023-04-02T07:17:45;23.52;38.32
67502;SHT30;54349;52.528;19.760;2023-04-02T07:23:01;23.50;38.31
67502;SHT30;54349;52.528;19.760;2023-04-02T07:25:30;23.49;38.29
67502;SHT30;54349;52.528;19.760;2023-04-02T07:27:58;23.48;38.27
67502;SHT30;54349;52.528;19.760;2023-04-02T07:30:28;23.47;38.28
67502;SHT30;54349;52.528;19.760;2023-04-02T07:32:57;23.47;38.34
67502;SHT30;54349;52.528;19.760;2023-04-02T07:35:25;23.46;38.26
67502;SHT30;54349;52.528;19.760;2023-04-02T07:37:54;23.46;38.19
67502;SHT30;54349;52.528;19.760;2023-04-02T07:40:23;23.45;38.10
67502;SHT30;54349;52.528;19.760;2023-04-02T07:42:51;23.45;38.12
67502;SHT30;54349;52.528;19.760;2023-04-02T07:45:19;23.44;38.05
67502;SHT30;54349;52.528;19.760;2023-04-02T07:47:48;23.42;38.00
67502;SHT30;54349;52.528;19.760;2023-04-02T07:50:17;23.42;37.96
67502;SHT30;54349;52.528;19.760;2023-04-02T07:52:46;23.41;37.97
67502;SHT30;54349;52.528;19.760;2023-04-02T07:55:14;23.40;37.95
67502;SHT30;54349;52.528;19.760;2023-04-02T07:57:47;23.40;37.90
67502;SHT30;54349;52.528;19.760;2023-04-02T08:00:20;23.39;37.87
67502;SHT30;54349;52.528;19.760;2023-04-02T08:02:49;23.39;37.87
67502;SHT30;54349;52.528;19.760;2023-04-02T08:05:19;23.38;37.81
67502;SHT30;54349;52.528;19.760;2023-04-02T08:07:53;23.39;37.73
67502;SHT30;54349;52.528;19.760;2023-04-02T08:10:23;23.39;37.73
67502;SHT30;54349;52.528;19.760;2023-04-02T08:12:52;23.39;37.71
67502;SHT30;54349;52.528;19.760;2023-04-02T08:15:21;23.40;37.69
67502;SHT30;54349;52.528;19.760;2023-04-02T08:17:50;23.41;37.62
67502;SHT30;54349;52.528;19.760;2023-04-02T08:20:19;23.42;37.68
67502;SHT30;54349;52.528;19.760;2023-04-02T08:22:49;23.44;37.67
67502;SHT30;54349;52.528;19.760;2023-04-02T08:25:17;23.45;37.69
67502;SHT30;54349;52.528;19.760;2023-04-02T08:27:46;23.47;37.69
67502;SHT30;54349;52.528;19.760;2023-04-02T08:30:16;23.47;37.68
67502;SHT30;54349;52.528;19.760;2023-04-02T08:32:45;23.48;37.69
67502;SHT30;54349;52.528;19.760;2023-04-02T08:35:14;23.49;37.71
67502;SHT30;54349;52.528;19.760;2023-04-02T08:37:44;23.48;37.74
67502;SHT30;54349;52.528;19.760;2023-04-02T08:40:24;23.48;37.73
67502;SHT30;54349;52.528;19.760;2023-04-02T08:49:01;23.48;37.78
67502;SHT30;54349;52.528;19.760;2023-04-02T08:51:40;23.48;37.81
67502;SHT30;54349;52.528;19.760;2023-04-02T08:54:16;23.47;37.92
67502;SHT30;54349;52.528;19.760;2023-04-02T08:57:45;23.48;38.02
67502;SHT30;54349;52.528;19.760;2023-04-02T09:00:07;23.48;37.98
67502;SHT30;54349;52.528;19.760;2023-04-02T09:02:46;23.48;37.93
67502;SHT30;54349;52.528;19.760;2023-04-02T09:05:26;23.48;37.91
67502;SHT30;54349;52.528;19.760;2023-04-02T09:08:02;23.48;37.87
67502;SHT30;54349;52.528;19.760;2023-04-02T09:10:39;23.48;37.91
67502;SHT30;54349;52.528;19.760;2023-04-02T09:13:36;23.48;37.88
67502;SHT30;54349;52.528;19.760;2023-04-02T09:16:14;23.48;37.86
67502;SHT30;54349;52.528;19.760;2023-04-02T09:18:50;23.49;37.80
67502;SHT30;54349;52.528;19.760;2023-04-02T09:24:15;23.51;37.77
67502;SHT30;54349;52.528;19.760;2023-04-02T09:26:43;23.53;37.70
67502;SHT30;54349;52.528;19.760;2023-04-02T09:32:06;23.56;37.57
67502;SHT30;54349;52.528;19.760;2023-04-02T09:35:15;23.57;37.50
67502;SHT30;54349;52.528;19.760;2023-04-02T09:38:15;23.59;37.47
67502;SHT30;54349;52.528;19.760;2023-04-02T09:43:32;23.60;37.49
67502;SHT30;54349;52.528;19.760;2023-04-02T09:48:58;23.59;38.77
67502;SHT30;54349;52.528;19.760;2023-04-02T09:51:31;23.60;39.74
67502;SHT30;54349;52.528;19.760;2023-04-02T09:54:06;23.60;40.46
67502;SHT30;54349;52.528;19.760;2023-04-02T09:57:02;23.61;41.01
67502;SHT30;54349;52.528;19.760;2023-04-02T09:59:33;23.63;41.48
67502;SHT30;54349;52.528;19.760;2023-04-02T10:02:16;23.62;41.84
67502;SHT30;54349;52.528;19.760;2023-04-02T10:04:53;23.63;42.17
67502;SHT30;54349;52.528;19.760;2023-04-02T10:07:33;23.65;42.36
67502;SHT30;54349;52.528;19.760;2023-04-02T10:10:17;23.65;42.62
67502;SHT30;54349;52.528;19.760;2023-04-02T10:16:02;23.67;42.87
67502;SHT30;54349;52.528;19.760;2023-04-02T10:18:48;23.67;42.91
67502;SHT30;54349;52.528;19.760;2023-04-02T10:21:28;23.68;43.09
67502;SHT30;54349;52.528;19.760;2023-04-02T10:24:09;23.68;43.22
67502;SHT30;54349;52.528;19.760;2023-04-02T10:32:41;23.70;42.17
67502;SHT30;54349;52.528;19.760;2023-04-02T10:35:39;23.71;41.75
67502;SHT30;54349;52.528;19.760;2023-04-02T10:52:07;23.72;40.28
67502;SHT30;54349;52.528;19.760;2023-04-02T10:54:52;23.72;40.18
67502;SHT30;54349;52.528;19.760;2023-04-02T10:57:36;23.72;40.06
67502;SHT30;54349;52.528;19.760;2023-04-02T11:06:03;23.71;40.55
67502;SHT30;54349;52.528;19.760;2023-04-02T11:08:48;23.70;40.70
67502;SHT30;54349;52.528;19.760;2023-04-02T11:11:22;23.72;40.80
67502;SHT30;54349;52.528;19.760;2023-04-02T11:13:58;23.73;40.89
67502;SHT30;54349;52.528;19.760;2023-04-02T11:16:33;23.73;41.02
67502;SHT30;54349;52.528;19.760;2023-04-02T11:19:15;23.75;41.05
67502;SHT30;54349;52.528;19.760;2023-04-02T11:21:50;23.75;40.87
67502;SHT30;54349;52.528;19.760;2023-04-02T11:24:35;23.76;40.74
67502;SHT30;54349;52.528;19.760;2023-04-02T11:34:57;23.77;40.26
67502;SHT30;54349;52.528;19.760;2023-04-02T11:37:40;23.76;40.16
67502;SHT30;54349;52.528;19.760;2023-04-02T11:50:38;23.68;39.89
67502;SHT30;54349;52.528;19.760;2023-04-02T11:55:39;23.64;40.04
67502;SHT30;54349;52.528;19.760;2023-04-02T12:10:23;23.56;40.26
67502;SHT30;54349;52.528;19.760;2023-04-02T12:12:59;23.54;40.20
67502;SHT30;54349;52.528;19.760;2023-04-02T12:18:14;23.52;40.10
67502;SHT30;54349;52.528;19.760;2023-04-02T12:20:47;23.50;40.02
67502;SHT30;54349;52.528;19.760;2023-04-02T12:23:26;23.50;40.00
67502;SHT30;54349;52.528;19.760;2023-04-02T12:26:03;23.49;40.79
67502;SHT30;54349;52.528;19.760;2023-04-02T12:28:49;23.47;41.90
67502;SHT30;54349;52.528;19.760;2023-04-02T12:31:18;23.46;42.48
67502;SHT30;54349;52.528;19.760;2023-04-02T12:33:51;23.44;42.89
67502;SHT30;54349;52.528;19.760;2023-04-02T12:36:21;23.45;43.16
67502;SHT30;54349;52.528;19.760;2023-04-02T12:46:33;23.45;43.31
67502;SHT30;54349;52.528;19.760;2023-04-02T12:49:07;23.45;43.34
67502;SHT30;54349;52.528;19.760;2023-04-02T12:51:47;23.46;43.29
67502;SHT30;54349;52.528;19.760;2023-04-02T12:54:18;23.47;43.28
67502;SHT30;54349;52.528;19.760;2023-04-02T12:56:48;23.48;43.35
67502;SHT30;54349;52.528;19.760;2023-04-02T13:02:15;23.50;43.52
67502;SHT30;54349;52.528;19.760;2023-04-02T13:04:52;23.53;43.58
67502;SHT30;54349;52.528;19.760;2023-04-02T13:07:24;23.55;43.59
67502;SHT30;54349;52.528;19.760;2023-04-02T13:10:00;23.56;43.58
67502;SHT30;54349;52.528;19.760;2023-04-02T13:12:58;23.57;43.55
67502;SHT30;54349;52.528;19.760;2023-04-02T13:15:32;23.58;43.61
67502;SHT30;54349;52.528;19.760;2023-04-02T13:18:05;23.60;43.37
67502;SHT30;54349;52.528;19.760;2023-04-02T13:20:58;23.63;42.99
67502;SHT30;54349;52.528;19.760;2023-04-02T13:26:00;23.68;42.52
67502;SHT30;54349;52.528;19.760;2023-04-02T13:31:49;23.71;42.10
67502;SHT30;54349;52.528;19.760;2023-04-02T13:34:19;23.72;41.98
67502;SHT30;54349;52.528;19.760;2023-04-02T13:36:47;23.74;41.87
67502;SHT30;54349;52.528;19.760;2023-04-02T13:39:16;23.74;41.71
67502;SHT30;54349;52.528;19.760;2023-04-02T13:41:47;23.75;41.62
67502;SHT30;54349;52.528;19.760;2023-04-02T13:44:24;23.75;41.45
67502;SHT30;54349;52.528;19.760;2023-04-02T13:46:56;23.76;41.37
67502;SHT30;54349;52.528;19.760;2023-04-02T13:49:26;23.76;41.50
67502;SHT30;54349;52.528;19.760;2023-04-02T13:51:56;23.77;41.41
67502;SHT30;54349;52.528;19.760;2023-04-02T13:54:35;23.77;41.36
67502;SHT30;54349;52.528;19.760;2023-04-02T13:57:16;23.77;41.25
67502;SHT30;54349;52.528;19.760;2023-04-02T13:59:44;23.78;41.19
67502;SHT30;54349;52.528;19.760;2023-04-02T14:02:17;23.78;41.12
67502;SHT30;54349;52.528;19.760;2023-04-02T14:04:52;23.78;41.10
67502;SHT30;54349;52.528;19.760;2023-04-02T14:13:04;23.78;40.94
67502;SHT30;54349;52.528;19.760;2023-04-02T14:24:35;23.75;40.74
67502;SHT30;54349;52.528;19.760;2023-04-02T14:27:15;23.74;40.71
67502;SHT30;54349;52.528;19.760;2023-04-02T14:30:14;23.73;40.69
67502;SHT30;54349;52.528;19.760;2023-04-02T14:45:35;23.65;40.60
67502;SHT30;54349;52.528;19.760;2023-04-02T14:51:23;23.62;40.50
67502;SHT30;54349;52.528;19.760;2023-04-02T14:54:33;23.60;40.50
67502;SHT30;54349;52.528;19.760;2023-04-02T14:57:34;23.60;40.54
67502;SHT30;54349;52.528;19.760;2023-04-02T15:03:14;23.59;40.53
67502;SHT30;54349;52.528;19.760;2023-04-02T15:05:53;23.59;40.52
67502;SHT30;54349;52.528;19.760;2023-04-02T15:14:58;23.60;40.41
67502;SHT30;54349;52.528;19.760;2023-04-02T15:18:00;23.60;40.40
67502;SHT30;54349;52.528;19.760;2023-04-02T15:20:35;23.60;40.40
67502;SHT30;54349;52.528;19.760;2023-04-02T15:29:39;23.61;40.24
67502;SHT30;54349;52.528;19.760;2023-04-02T15:32:28;23.59;40.28
67502;SHT30;54349;52.528;19.760;2023-04-02T15:38:24;23.56;40.21
67502;SHT30;54349;52.528;19.760;2023-04-02T15:41:24;23.52;40.20
67502;SHT30;54349;52.528;19.760;2023-04-02T15:52:27;23.45;40.70
67502;SHT30;54349;52.528;19.760;2023-04-02T16:01:10;23.44;41.22
67502;SHT30;54349;52.528;19.760;2023-04-02T16:08:00;23.44;41.37
67502;SHT30;54349;52.528;19.760;2023-04-02T16:10:57;23.44;41.43
67502;SHT30;54349;52.528;19.760;2023-04-02T16:13:30;23.44;41.51
67502;SHT30;54349;52.528;19.760;2023-04-02T16:21:53;23.45;41.61
67502;SHT30;54349;52.528;19.760;2023-04-02T16:24:33;23.46;41.69
67502;SHT30;54349;52.528;19.760;2023-04-02T16:35:44;23.50;42.07
67502;SHT30;54349;52.528;19.760;2023-04-02T16:47:26;23.57;42.43
67502;SHT30;54349;52.528;19.760;2023-04-02T16:50:18;23.58;42.43
67502;SHT30;54349;52.528;19.760;2023-04-02T16:59:45;23.61;42.42
67502;SHT30;54349;52.528;19.760;2023-04-02T17:02:48;23.64;42.48
67502;SHT30;54349;52.528;19.760;2023-04-02T17:05:49;23.66;42.52
67502;SHT30;54349;52.528;19.760;2023-04-02T17:08:43;23.67;42.62
67502;SHT30;54349;52.528;19.760;2023-04-02T17:11:47;23.70;42.87
67502;SHT30;54349;52.528;19.760;2023-04-02T17:14:32;23.71;42.89
67502;SHT30;54349;52.528;19.760;2023-04-02T17:17:13;23.74;42.84
67502;SHT30;54349;52.528;19.760;2023-04-02T17:19:45;23.74;42.90
67502;SHT30;54349;52.528;19.760;2023-04-02T17:22:20;23.74;42.90
67502;SHT30;54349;52.528;19.760;2023-04-02T17:24:55;23.75;42.92
67502;SHT30;54349;52.528;19.760;2023-04-02T17:27:36;23.77;42.99
67502;SHT30;54349;52.528;19.760;2023-04-02T17:30:12;23.78;42.95
67502;SHT30;54349;52.528;19.760;2023-04-02T17:33:15;23.79;43.00
67502;SHT30;54349;52.528;19.760;2023-04-02T17:44:28;23.80;42.79
67502;SHT30;54349;52.528;19.760;2023-04-02T18:01:42;23.70;43.68
67502;SHT30;54349;52.528;19.760;2023-04-02T18:11:00;23.61;44.16
67502;SHT30;54349;52.528;19.760;2023-04-02T18:20:15;23.65;44.71
67502;SHT30;54349;52.528;19.760;2023-04-02T18:29:28;23.71;45.32
67502;SHT30;54349;52.528;19.760;2023-04-02T18:40:59;23.76;45.07
67502;SHT30;54349;52.528;19.760;2023-04-02T18:47:24;23.78;44.84
67502;SHT30;54349;52.528;19.760;2023-04-02T18:50:28;23.79;44.68
67502;SHT30;54349;52.528;19.760;2023-04-02T18:53:12;23.80;44.53
67502;SHT30;54349;52.528;19.760;2023-04-02T18:55:56;23.80;44.61
67502;SHT30;54349;52.528;19.760;2023-04-02T19:01:40;23.82;44.53
67502;SHT30;54349;52.528;19.760;2023-04-02T19:04:20;23.83;44.46
67502;SHT30;54349;52.528;19.760;2023-04-02T19:09:34;23.85;44.19
67502;SHT30;54349;52.528;19.760;2023-04-02T19:12:13;23.85;44.08
67502;SHT30;54349;52.528;19.760;2023-04-02T19:14:47;23.86;44.12
67502;SHT30;54349;52.528;19.760;2023-04-02T19:20:19;23.87;44.09
67502;SHT30;54349;52.528;19.760;2023-04-02T19:26:14;23.90;44.23
67502;SHT30;54349;52.528;19.760;2023-04-02T19:29:14;23.89;44.10
67502;SHT30;54349;52.528;19.760;2023-04-02T19:31:52;23.92;44.04
67502;SHT30;54349;52.528;19.760;2023-04-02T19:42:46;23.92;43.75
67502;SHT30;54349;52.528;19.760;2023-04-02T19:45:40;23.92;43.68
67502;SHT30;54349;52.528;19.760;2023-04-02T19:48:12;23.93;43.79
67502;SHT30;54349;52.528;19.760;2023-04-02T19:50:46;23.93;43.88
67502;SHT30;54349;52.528;19.760;2023-04-02T19:53:16;23.94;43.80
67502;SHT30;54349;52.528;19.760;2023-04-02T19:55:46;23.94;43.57
67502;SHT30;54349;52.528;19.760;2023-04-02T19:58:17;23.95;43.46
67502;SHT30;54349;52.528;19.760;2023-04-02T20:01:01;23.97;43.39
67502;SHT30;54349;52.528;19.760;2023-04-02T20:03:31;23.96;43.55
67502;SHT30;54349;52.528;19.760;2023-04-02T20:06:00;23.95;44.59
67502;SHT30;54349;52.528;19.760;2023-04-02T20:08:29;23.94;45.28
67502;SHT30;54349;52.528;19.760;2023-04-02T20:10:59;23.94;45.35
67502;SHT30;54349;52.528;19.760;2023-04-02T20:13:27;23.95;45.41
67502;SHT30;54349;52.528;19.760;2023-04-02T20:15:59;23.95;45.62
67502;SHT30;54349;52.528;19.760;2023-04-02T20:18:30;23.96;45.89
67502;SHT30;54349;52.528;19.760;2023-04-02T20:21:02;23.95;46.14
67502;SHT30;54349;52.528;19.760;2023-04-02T20:23:33;23.96;46.21
67502;SHT30;54349;52.528;19.760;2023-04-02T20:26:03;23.96;46.22
67502;SHT30;54349;52.528;19.760;2023-04-02T20:28:33;23.95;46.52
67502;SHT30;54349;52.528;19.760;2023-04-02T20:31:08;23.94;46.87
67502;SHT30;54349;52.528;19.760;2023-04-02T20:33:40;23.95;46.86
67502;SHT30;54349;52.528;19.760;2023-04-02T20:36:12;23.94;46.80
67502;SHT30;54349;52.528;19.760;2023-04-02T20:38:43;23.94;46.65
67502;SHT30;54349;52.528;19.760;2023-04-02T20:41:12;23.94;46.65
67502;SHT30;54349;52.528;19.760;2023-04-02T20:43:44;23.94;46.48
67502;SHT30;54349;52.528;19.760;2023-04-02T20:46:12;23.93;46.38
67502;SHT30;54349;52.528;19.760;2023-04-02T20:48:41;23.92;46.37
67502;SHT30;54349;52.528;19.760;2023-04-02T20:51:10;23.92;46.59
67502;SHT30;54349;52.528;19.760;2023-04-02T20:53:42;23.93;46.63
67502;SHT30;54349;52.528;19.760;2023-04-02T20:56:11;23.92;46.57
67502;SHT30;54349;52.528;19.760;2023-04-02T20:58:43;23.91;46.84
67502;SHT30;54349;52.528;19.760;2023-04-02T21:01:20;23.93;47.07
67502;SHT30;54349;52.528;19.760;2023-04-02T21:03:59;23.93;47.08
67502;SHT30;54349;52.528;19.760;2023-04-02T21:06:30;23.93;46.92
67502;SHT30;54349;52.528;19.760;2023-04-02T21:09:04;23.91;46.72
67502;SHT30;54349;52.528;19.760;2023-04-02T21:11:35;23.92;46.71
67502;SHT30;54349;52.528;19.760;2023-04-02T21:14:04;23.92;46.62
67502;SHT30;54349;52.528;19.760;2023-04-02T21:16:33;23.91;46.56
67502;SHT30;54349;52.528;19.760;2023-04-02T21:19:03;23.92;46.50
67502;SHT30;54349;52.528;19.760;2023-04-02T21:21:35;23.90;46.46
67502;SHT30;54349;52.528;19.760;2023-04-02T21:24:06;23.90;46.51
67502;SHT30;54349;52.528;19.760;2023-04-02T21:26:40;23.91;46.46
67502;SHT30;54349;52.528;19.760;2023-04-02T21:29:09;23.90;46.30
67502;SHT30;54349;52.528;19.760;2023-04-02T21:31:39;23.89;46.20
67502;SHT30;54349;52.528;19.760;2023-04-02T21:34:11;23.89;46.08
67502;SHT30;54349;52.528;19.760;2023-04-02T21:36:43;23.90;46.12
67502;SHT30;54349;52.528;19.760;2023-04-02T21:39:21;23.88;46.10
67502;SHT30;54349;52.528;19.760;2023-04-02T21:41:51;23.89;46.10
67502;SHT30;54349;52.528;19.760;2023-04-02T21:44:21;23.88;46.10
67502;SHT30;54349;52.528;19.760;2023-04-02T21:46:51;23.87;46.04
67502;SHT30;54349;52.528;19.760;2023-04-02T21:49:21;23.87;45.98
67502;SHT30;54349;52.528;19.760;2023-04-02T21:51:50;23.86;45.89
67502;SHT30;54349;52.528;19.760;2023-04-02T21:54:19;23.88;45.86
67502;SHT30;54349;52.528;19.760;2023-04-02T21:56:48;23.87;46.06
67502;SHT30;54349;52.528;19.760;2023-04-02T21:59:17;23.88;46.21
67502;SHT30;54349;52.528;19.760;2023-04-02T22:01:47;23.90;46.18
67502;SHT30;54349;52.528;19.760;2023-04-02T22:04:22;23.91;45.73
67502;SHT30;54349;52.528;19.760;2023-04-02T22:06:52;23.92;45.37
67502;SHT30;54349;52.528;19.760;2023-04-02T22:09:26;23.91;45.10
67502;SHT30;54349;52.528;19.760;2023-04-02T22:11:56;23.91;44.88
67502;SHT30;54349;52.528;19.760;2023-04-02T22:14:26;23.91;44.69
67502;SHT30;54349;52.528;19.760;2023-04-02T22:16:56;23.90;44.51
67502;SHT30;54349;52.528;19.760;2023-04-02T22:19:25;23.88;44.33
67502;SHT30;54349;52.528;19.760;2023-04-02T22:21:54;23.87;44.16